createdAt,value
2022-11-12T00:00:19.930Z,0.00
2022-11-12T00:01:19.974Z,0.00
2022-11-12T00:02:20.028Z,0.00
2022-11-12T00:03:19.897Z,0.00
2022-11-12T00:04:19.903Z,0.00
2022-11-12T00:05:20.010Z,0.00
2022-11-12T00:06:19.864Z,0.00
2022-11-12T00:07:19.901Z,0.00
2022-11-12T00:08:19.888Z,0.00
2022-11-12T00:09:19.833Z,0.00
2022-11-12T00:10:19.873Z,0.00
2022-11-12T00:11:19.805Z,0.00
2022-11-12T00:12:19.847Z,0.00
2022-11-12T00:13:19.848Z,0.00
2022-11-12T00:14:20.063Z,0.00
2022-11-12T00:15:19.767Z,0.00
2022-11-12T00:16:19.759Z,0.00
2022-11-12T00:17:19.769Z,0.00
2022-11-12T00:18:19.797Z,0.00
2022-11-12T00:19:19.789Z,0.00
2022-11-12T00:20:19.735Z,0.00
2022-11-12T00:21:19.730Z,0.00
2022-11-12T00:22:19.752Z,0.00
2022-11-12T00:23:19.709Z,0.00
2022-11-12T00:24:19.744Z,0.00
2022-11-12T00:25:19.668Z,0.00
2022-11-12T00:26:19.667Z,0.00
2022-11-12T00:27:19.651Z,0.00
2022-11-12T00:28:19.721Z,0.00
2022-11-12T00:29:19.634Z,0.00
2022-11-12T00:30:19.681Z,0.00
2022-11-12T00:31:19.611Z,0.00
2022-11-12T00:32:19.684Z,0.00
2022-11-12T00:33:19.626Z,0.00
2022-11-12T00:34:19.629Z,0.00
2022-11-12T00:35:19.618Z,0.00
2022-11-12T00:36:19.627Z,0.00
2022-11-12T00:37:19.580Z,0.00
2022-11-12T00:38:19.534Z,0.00
2022-11-12T00:39:19.608Z,0.00
2022-11-12T00:40:19.592Z,0.00
2022-11-12T00:41:19.539Z,0.00
2022-11-12T00:42:19.505Z,0.00
2022-11-12T00:43:19.488Z,0.00
2022-11-12T00:44:19.569Z,0.00
2022-11-12T00:45:19.483Z,0.00
2022-11-12T00:46:19.527Z,0.00
2022-11-12T00:47:19.474Z,0.00
2022-11-12T00:48:19.446Z,0.00
2022-11-12T00:49:19.497Z,0.00
2022-11-12T00:50:19.493Z,0.00
2022-11-12T00:51:19.476Z,0.00
2022-11-12T00:52:19.395Z,0.00
2022-11-12T00:53:19.399Z,0.00
2022-11-12T00:54:19.393Z,0.00
2022-11-12T00:55:19.464Z,0.00
2022-11-12T00:56:19.362Z,0.00
2022-11-12T00:57:19.358Z,0.00
2022-11-12T00:58:19.342Z,0.00
2022-11-12T00:59:19.355Z,0.00
2022-11-12T01:00:19.336Z,0.00
2022-11-12T01:01:19.421Z,0.00
2022-11-12T01:02:19.709Z,0.00
2022-11-12T01:03:19.454Z,0.00
2022-11-12T01:04:19.341Z,0.00
2022-11-12T01:05:19.335Z,0.00
2022-11-12T01:06:19.251Z,0.00
2022-11-12T01:07:19.327Z,0.00
2022-11-12T01:08:19.340Z,0.00
2022-11-12T01:09:19.323Z,0.00
2022-11-12T01:10:19.264Z,0.00
2022-11-12T01:11:19.245Z,0.00
2022-11-12T01:12:19.251Z,0.00
2022-11-12T01:13:19.188Z,0.00
2022-11-12T01:14:19.251Z,0.00
2022-11-12T01:15:19.255Z,0.00
2022-11-12T01:16:19.189Z,0.00
2022-11-12T01:17:19.265Z,0.00
2022-11-12T01:18:19.689Z,0.00
2022-11-12T01:19:19.274Z,0.00
2022-11-12T01:20:19.309Z,0.00
2022-11-12T01:21:19.218Z,0.00
2022-11-12T01:22:19.193Z,0.00
2022-11-12T01:23:19.101Z,0.00
2022-11-12T01:24:19.142Z,0.00
2022-11-12T01:25:19.169Z,0.00
2022-11-12T01:26:19.100Z,0.00
2022-11-12T01:27:19.083Z,0.00
2022-11-12T01:28:19.064Z,0.00
2022-11-12T01:29:19.106Z,0.00
2022-11-12T01:30:19.091Z,0.00
2022-11-12T01:31:19.066Z,0.00
2022-11-12T01:32:19.073Z,0.00
2022-11-12T01:33:18.986Z,0.00
2022-11-12T01:34:19.096Z,0.00
2022-11-12T01:35:18.976Z,0.00
2022-11-12T01:36:19.015Z,0.00
2022-11-12T01:37:19.004Z,0.00
2022-11-12T01:38:18.982Z,0.00
2022-11-12T01:39:18.964Z,0.00
2022-11-12T01:40:18.936Z,0.00
2022-11-12T01:41:18.972Z,0.00
2022-11-12T01:42:18.906Z,0.00
2022-11-12T01:43:18.943Z,0.00
2022-11-12T01:44:18.917Z,0.00
2022-11-12T01:45:18.871Z,0.00
2022-11-12T01:46:18.906Z,0.00
2022-11-12T01:47:18.841Z,0.00
2022-11-12T01:48:18.895Z,0.00
2022-11-12T01:49:18.827Z,0.00
2022-11-12T01:50:18.840Z,0.00
2022-11-12T01:51:18.834Z,0.00
2022-11-12T01:52:18.853Z,0.00
2022-11-12T01:53:18.806Z,0.00
2022-11-12T01:54:18.836Z,0.00
2022-11-12T01:55:18.782Z,0.00
2022-11-12T01:56:18.796Z,0.00
2022-11-12T01:57:18.801Z,0.00
2022-11-12T01:58:18.745Z,0.00
2022-11-12T01:59:18.733Z,0.00
2022-11-12T02:00:18.755Z,0.00
2022-11-12T02:01:18.775Z,0.00
2022-11-12T02:02:18.715Z,0.00
2022-11-12T02:03:18.771Z,0.00
2022-11-12T02:04:18.696Z,0.00
2022-11-12T02:05:18.654Z,0.00
2022-11-12T02:06:18.667Z,0.00
2022-11-12T02:07:18.755Z,0.00
2022-11-12T02:08:18.673Z,0.00
2022-11-12T02:09:18.647Z,0.00
2022-11-12T02:10:18.874Z,0.00
2022-11-12T02:11:18.610Z,0.00
2022-11-12T02:12:18.595Z,0.00
2022-11-12T02:13:18.673Z,0.00
2022-11-12T02:14:18.582Z,0.00
2022-11-12T02:15:18.560Z,0.00
2022-11-12T02:16:18.602Z,0.00
2022-11-12T02:17:18.539Z,0.00
2022-11-12T02:18:18.582Z,0.00
2022-11-12T02:19:18.550Z,0.00
2022-11-12T02:20:18.515Z,0.00
2022-11-12T02:21:18.558Z,0.00
2022-11-12T02:22:18.481Z,0.00
2022-11-12T02:23:18.560Z,0.00
2022-11-12T02:24:18.513Z,0.00
2022-11-12T02:25:18.560Z,0.00
2022-11-12T02:26:18.494Z,0.00
2022-11-12T02:27:18.501Z,0.00
2022-11-12T02:28:18.451Z,0.00
2022-11-12T02:29:18.425Z,0.00
2022-11-12T02:30:18.453Z,0.00
2022-11-12T02:31:18.447Z,0.00
2022-11-12T02:32:18.394Z,0.00
2022-11-12T02:33:18.417Z,0.00
2022-11-12T02:34:18.375Z,0.00
2022-11-12T02:35:18.390Z,0.00
2022-11-12T02:36:18.410Z,0.00
2022-11-12T02:37:18.344Z,0.00
2022-11-12T02:38:18.414Z,0.00
2022-11-12T02:39:18.415Z,0.00
2022-11-12T02:40:18.320Z,0.00
2022-11-12T02:41:18.360Z,0.00
2022-11-12T02:42:18.281Z,0.00
2022-11-12T02:43:18.362Z,0.00
2022-11-12T02:44:18.292Z,0.00
2022-11-12T02:45:18.251Z,0.00
2022-11-12T02:46:18.265Z,0.00
2022-11-12T02:47:18.241Z,0.00
2022-11-12T02:48:19.440Z,0.00
2022-11-12T02:49:18.305Z,0.00
2022-11-12T02:50:18.291Z,0.00
2022-11-12T02:51:18.307Z,0.00
2022-11-12T02:52:18.191Z,0.00
2022-11-12T02:53:18.216Z,0.00
2022-11-12T02:54:18.225Z,0.00
2022-11-12T02:55:18.163Z,0.00
2022-11-12T02:56:18.153Z,0.00
2022-11-12T02:57:18.137Z,0.00
2022-11-12T02:58:18.157Z,0.00
2022-11-12T02:59:18.195Z,0.00
2022-11-12T03:00:18.191Z,0.00
2022-11-12T03:01:18.152Z,0.00
2022-11-12T03:02:18.088Z,0.00
2022-11-12T03:03:18.079Z,0.00
2022-11-12T03:04:18.072Z,0.00
2022-11-12T03:05:18.121Z,0.00
2022-11-12T03:06:18.124Z,0.00
2022-11-12T03:07:18.096Z,0.00
2022-11-12T03:08:18.041Z,0.00
2022-11-12T03:09:18.019Z,0.00
2022-11-12T03:10:18.057Z,0.00
2022-11-12T03:11:18.122Z,0.00
2022-11-12T03:12:18.027Z,0.00
2022-11-12T03:13:17.994Z,0.00
2022-11-12T03:14:17.965Z,0.00
2022-11-12T03:15:17.955Z,0.00
2022-11-12T03:16:17.988Z,0.00
2022-11-12T03:17:17.991Z,0.00
2022-11-12T03:18:17.921Z,0.00
2022-11-12T03:19:17.992Z,0.00
2022-11-12T03:20:17.909Z,0.00
2022-11-12T03:21:17.899Z,0.00
2022-11-12T03:22:18.013Z,0.00
2022-11-12T03:23:18.025Z,0.00
2022-11-12T03:24:17.861Z,0.00
2022-11-12T03:25:18.147Z,0.00
2022-11-12T03:26:17.878Z,0.00
2022-11-12T03:27:17.919Z,0.00
2022-11-12T03:28:17.875Z,0.00
2022-11-12T03:29:17.892Z,0.00
2022-11-12T03:30:17.805Z,0.00
2022-11-12T03:31:17.846Z,0.00
2022-11-12T03:32:17.852Z,0.00
2022-11-12T03:33:17.795Z,0.00
2022-11-12T03:34:17.819Z,0.00
2022-11-12T03:35:17.806Z,0.00
2022-11-12T03:36:17.968Z,0.00
2022-11-12T03:37:17.837Z,0.00
2022-11-12T03:38:17.735Z,0.00
2022-11-12T03:39:17.752Z,0.00
2022-11-12T03:40:17.746Z,0.00
2022-11-12T03:41:17.709Z,0.00
2022-11-12T03:42:17.735Z,0.00
2022-11-12T03:43:17.719Z,0.00
2022-11-12T03:44:17.679Z,0.00
2022-11-12T03:45:17.704Z,0.00
2022-11-12T03:46:17.780Z,0.00
2022-11-12T03:47:17.642Z,0.00
2022-11-12T03:48:17.714Z,0.00
2022-11-12T03:49:17.713Z,0.00
2022-11-12T03:50:17.640Z,0.00
2022-11-12T03:51:17.598Z,0.00
2022-11-12T03:52:17.590Z,0.00
2022-11-12T03:53:17.658Z,0.00
2022-11-12T03:54:17.641Z,0.00
2022-11-12T03:55:17.558Z,0.00
2022-11-12T03:56:17.565Z,0.00
2022-11-12T03:57:17.538Z,0.00
2022-11-12T03:58:17.566Z,0.00
2022-11-12T03:59:17.567Z,0.00
2022-11-12T04:00:17.636Z,0.00
2022-11-12T04:01:17.649Z,0.00
2022-11-12T04:02:17.504Z,0.00
2022-11-12T04:03:17.483Z,0.00
2022-11-12T04:04:17.483Z,0.00
2022-11-12T04:05:17.495Z,0.00
2022-11-12T04:06:17.444Z,0.00
2022-11-12T04:07:17.592Z,0.00
2022-11-12T04:08:17.439Z,0.00
2022-11-12T04:09:17.421Z,0.00
2022-11-12T04:10:17.418Z,0.00
2022-11-12T04:11:17.409Z,0.00
2022-11-12T04:12:17.451Z,0.00
2022-11-12T04:13:17.383Z,0.00
2022-11-12T04:14:17.397Z,0.00
2022-11-12T04:15:17.356Z,0.00
2022-11-12T04:16:17.498Z,0.00
2022-11-12T04:17:17.352Z,0.00
2022-11-12T04:18:17.326Z,0.00
2022-11-12T04:19:17.321Z,0.00
2022-11-12T04:20:17.372Z,0.00
2022-11-12T04:21:17.352Z,0.00
2022-11-12T04:22:17.505Z,0.00
2022-11-12T04:23:17.322Z,0.00
2022-11-12T04:24:17.328Z,0.00
2022-11-12T04:25:17.263Z,0.00
2022-11-12T04:26:17.314Z,0.00
2022-11-12T04:27:17.256Z,0.00
2022-11-12T04:28:17.291Z,0.00
2022-11-12T04:29:17.231Z,0.00
2022-11-12T04:30:17.238Z,0.00
2022-11-12T04:31:17.198Z,0.00
2022-11-12T04:32:17.198Z,0.00
2022-11-12T04:33:17.184Z,0.00
2022-11-12T04:34:17.338Z,0.00
2022-11-12T04:35:17.173Z,0.00
2022-11-12T04:36:17.176Z,0.00
2022-11-12T04:37:22.355Z,0.00
2022-11-12T04:38:17.251Z,0.00
2022-11-12T04:39:17.125Z,0.00
2022-11-12T04:40:17.199Z,0.00
2022-11-12T04:41:17.110Z,0.00
2022-11-12T04:42:17.133Z,0.00
2022-11-12T04:43:17.076Z,0.00
2022-11-12T04:44:17.123Z,0.00
2022-11-12T04:45:17.173Z,0.00
2022-11-12T04:46:17.105Z,0.00
2022-11-12T04:47:17.234Z,0.00
2022-11-12T04:48:17.185Z,0.00
2022-11-12T04:49:17.081Z,0.00
2022-11-12T04:50:17.011Z,0.00
2022-11-12T04:51:17.224Z,0.00
2022-11-12T04:52:17.025Z,0.00
2022-11-12T04:53:17.004Z,0.00
2022-11-12T04:54:17.029Z,0.00
2022-11-12T04:55:16.993Z,0.00
2022-11-12T04:56:16.965Z,0.00
2022-11-12T04:57:16.962Z,0.00
2022-11-12T04:58:17.014Z,0.00
2022-11-12T04:59:16.938Z,0.00
2022-11-12T05:00:16.964Z,0.00
2022-11-12T05:01:16.947Z,0.00
2022-11-12T05:02:16.977Z,0.00
2022-11-12T05:03:16.888Z,0.00
2022-11-12T05:04:16.950Z,0.00
2022-11-12T05:05:16.883Z,0.00
2022-11-12T05:06:16.881Z,0.00
2022-11-12T05:07:16.996Z,0.00
2022-11-12T05:08:16.920Z,0.00
2022-11-12T05:09:16.921Z,0.00
2022-11-12T05:10:16.869Z,0.00
2022-11-12T05:11:16.853Z,0.00
2022-11-12T05:12:16.812Z,0.00
2022-11-12T05:13:16.848Z,0.00
2022-11-12T05:14:16.785Z,0.00
2022-11-12T05:15:16.774Z,0.00
2022-11-12T05:16:16.801Z,0.00
2022-11-12T05:17:16.757Z,0.00
2022-11-12T05:18:16.755Z,0.00
2022-11-12T05:19:16.755Z,0.00
2022-11-12T05:20:16.754Z,0.00
2022-11-12T05:21:16.796Z,0.00
2022-11-12T05:22:40.274Z,0.00
2022-11-12T05:23:16.778Z,0.00
2022-11-12T05:24:34.032Z,0.00
2022-11-12T05:25:16.714Z,0.00
2022-11-12T05:26:16.738Z,0.00
2022-11-12T05:27:16.664Z,0.00
2022-11-12T05:28:16.677Z,0.00
2022-11-12T05:29:16.744Z,0.00
2022-11-12T05:30:16.669Z,0.00
2022-11-12T05:31:16.650Z,0.00
2022-11-12T05:32:16.646Z,0.00
2022-11-12T05:33:16.604Z,0.00
2022-11-12T05:34:22.552Z,0.00
2022-11-12T05:35:16.577Z,0.00
2022-11-12T05:36:16.567Z,0.00
2022-11-12T05:37:16.644Z,0.00
2022-11-12T05:38:16.578Z,0.00
2022-11-12T05:39:16.553Z,0.00
2022-11-12T05:40:16.579Z,0.00
2022-11-12T05:41:20.170Z,0.00
2022-11-12T05:42:16.562Z,0.00
2022-11-12T05:43:16.501Z,0.00
2022-11-12T05:44:16.512Z,0.00
2022-11-12T05:45:16.559Z,0.00
2022-11-12T05:46:16.530Z,0.00
2022-11-12T05:47:16.477Z,0.00
2022-11-12T05:48:21.499Z,0.00
2022-11-12T05:49:16.462Z,0.00
2022-11-12T05:50:16.462Z,1.00
2022-11-12T05:51:16.416Z,0.00
2022-11-12T05:52:16.467Z,0.00
2022-11-12T05:53:16.471Z,1.00
2022-11-12T05:54:16.397Z,1.00
2022-11-12T05:55:16.384Z,1.00
2022-11-12T05:56:16.490Z,1.00
2022-11-12T05:57:16.308Z,2.00
2022-11-12T05:58:16.314Z,2.00
2022-11-12T05:59:16.372Z,2.00
2022-11-12T06:00:16.312Z,3.00
2022-11-12T06:01:16.266Z,2.00
2022-11-12T06:02:16.386Z,2.00
2022-11-12T06:03:16.331Z,5.00
2022-11-12T06:04:16.294Z,10.00
2022-11-12T06:05:16.244Z,10.00
2022-11-12T06:06:16.254Z,12.00
2022-11-12T06:07:16.256Z,11.00
2022-11-12T06:08:16.239Z,11.00
2022-11-12T06:09:16.200Z,19.00
2022-11-12T06:10:20.515Z,21.00
2022-11-12T06:11:16.224Z,25.00
2022-11-12T06:12:16.203Z,27.00
2022-11-12T06:13:16.142Z,32.00
2022-11-12T06:14:16.189Z,39.00
2022-11-12T06:15:16.162Z,43.00
2022-11-12T06:16:16.226Z,49.00
2022-11-12T06:17:16.203Z,54.00
2022-11-12T06:18:16.134Z,59.00
2022-11-12T06:19:16.198Z,68.00
2022-11-12T06:20:16.086Z,73.00
2022-11-12T06:21:16.090Z,81.00
2022-11-12T06:22:16.150Z,88.00
2022-11-12T06:23:16.079Z,96.00
2022-11-12T06:24:16.037Z,106.00
2022-11-12T06:25:16.024Z,114.00
2022-11-12T06:26:16.202Z,122.00
2022-11-12T06:27:16.060Z,135.00
2022-11-12T06:28:16.091Z,149.00
2022-11-12T06:29:16.003Z,160.00
2022-11-12T06:30:16.034Z,171.00
2022-11-12T06:31:15.974Z,184.00
2022-11-12T06:32:16.014Z,199.00
2022-11-12T06:33:16.044Z,216.00
2022-11-12T06:34:15.947Z,231.00
2022-11-12T06:35:16.034Z,247.00
2022-11-12T06:36:15.940Z,261.00
2022-11-12T06:37:15.910Z,270.00
2022-11-12T06:38:15.973Z,286.00
2022-11-12T06:39:15.919Z,304.00
2022-11-12T06:40:15.890Z,333.00
2022-11-12T06:41:15.874Z,335.00
2022-11-12T06:42:15.920Z,371.00
2022-11-12T06:43:15.906Z,399.00
2022-11-12T06:44:21.833Z,419.00
2022-11-12T06:45:15.859Z,481.00
2022-11-12T06:46:15.817Z,493.00
2022-11-12T06:47:15.867Z,487.00
2022-11-12T06:48:15.873Z,513.00
2022-11-12T06:49:15.813Z,536.00
2022-11-12T06:50:15.789Z,545.00
2022-11-12T06:51:15.796Z,584.00
2022-11-12T06:52:16.817Z,598.00
2022-11-12T06:53:15.875Z,653.00
2022-11-12T06:54:15.744Z,665.00
2022-11-12T06:55:15.814Z,691.00
2022-11-12T06:56:15.798Z,738.00
2022-11-12T06:57:15.707Z,748.00
2022-11-12T06:58:15.740Z,756.00
2022-11-12T06:59:15.749Z,774.00
2022-11-12T07:00:15.705Z,788.00
2022-11-12T07:01:15.777Z,796.00
2022-11-12T07:02:15.802Z,801.00
2022-11-12T07:03:15.654Z,814.00
2022-11-12T07:04:15.708Z,864.00
2022-11-12T07:05:15.653Z,894.00
2022-11-12T07:06:15.662Z,915.00
2022-11-12T07:07:15.707Z,940.00
2022-11-12T07:08:15.593Z,969.00
2022-11-12T07:09:15.596Z,1018.00
2022-11-12T07:10:15.647Z,1056.00
2022-11-12T07:11:15.573Z,1071.00
2022-11-12T07:12:15.633Z,1098.00
2022-11-12T07:13:15.584Z,1124.00
2022-11-12T07:14:15.690Z,1166.00
2022-11-12T07:15:15.528Z,1166.00
2022-11-12T07:16:15.523Z,1182.00
2022-11-12T07:17:15.507Z,1191.00
2022-11-12T07:18:15.700Z,1205.00
2022-11-12T07:19:15.500Z,1208.00
2022-11-12T07:20:15.484Z,1224.00
2022-11-12T07:21:15.476Z,1244.00
2022-11-12T07:22:15.529Z,1279.00
2022-11-12T07:23:15.452Z,1313.00
2022-11-12T07:24:15.516Z,1369.00
2022-11-12T07:25:15.474Z,1406.00
2022-11-12T07:26:15.444Z,1387.00
2022-11-12T07:27:15.490Z,1407.00
2022-11-12T07:28:15.411Z,1460.00
2022-11-12T07:29:30.078Z,1512.00
2022-11-12T07:30:15.456Z,1592.00
2022-11-12T07:31:15.457Z,1673.00
2022-11-12T07:32:15.393Z,1738.00
2022-11-12T07:33:15.464Z,1734.00
2022-11-12T07:34:15.360Z,1777.00
2022-11-12T07:35:15.380Z,1748.00
2022-11-12T07:36:15.320Z,1693.00
2022-11-12T07:37:15.323Z,1674.00
2022-11-12T07:38:15.377Z,1641.00
2022-11-12T07:39:15.336Z,1711.00
2022-11-12T07:40:15.280Z,1689.00
2022-11-12T07:41:15.309Z,1762.00
2022-11-12T07:42:15.454Z,1781.00
2022-11-12T07:43:15.304Z,1745.00
2022-11-12T07:44:15.294Z,1931.00
2022-11-12T07:45:15.273Z,2074.00
2022-11-12T07:46:15.299Z,2122.00
2022-11-12T07:47:15.243Z,2077.00
2022-11-12T07:48:15.270Z,2122.00
2022-11-12T07:49:15.188Z,2040.00
2022-11-12T07:50:15.245Z,2191.00
2022-11-12T07:51:15.212Z,2128.00
2022-11-12T07:52:15.152Z,2117.00
2022-11-12T07:53:15.172Z,2262.00
2022-11-12T07:54:15.160Z,2173.00
2022-11-12T07:55:15.194Z,2236.00
2022-11-12T07:56:15.131Z,2383.00
2022-11-12T07:57:15.101Z,2472.00
2022-11-12T07:58:15.143Z,2585.00
2022-11-12T07:59:15.123Z,2726.00
2022-11-12T08:00:15.163Z,2745.00
2022-11-12T08:01:15.102Z,2762.00
2022-11-12T08:02:15.134Z,2817.00
2022-11-12T08:03:15.041Z,3031.00
2022-11-12T08:04:15.046Z,3172.00
2022-11-12T08:05:20.169Z,3287.00
2022-11-12T08:06:15.088Z,3205.00
2022-11-12T08:07:15.149Z,3054.00
2022-11-12T08:08:15.016Z,3351.00
2022-11-12T08:09:15.028Z,3716.00
2022-11-12T08:10:14.996Z,3582.00
2022-11-12T08:11:14.999Z,4073.00
2022-11-12T08:12:15.085Z,4189.00
2022-11-12T08:13:14.968Z,3854.00
2022-11-12T08:14:14.936Z,3591.00
2022-11-12T08:15:15.035Z,3593.00
2022-11-12T08:16:14.934Z,3732.00
2022-11-12T08:17:15.001Z,3575.00
2022-11-12T08:18:14.893Z,3402.00
2022-11-12T08:19:14.951Z,3495.00
2022-11-12T08:20:15.010Z,3753.00
2022-11-12T08:21:14.951Z,3669.00
2022-11-12T08:22:14.948Z,3843.00
2022-11-12T08:23:14.873Z,3873.00
2022-11-12T08:24:14.846Z,3595.00
2022-11-12T08:25:14.868Z,3517.00
2022-11-12T08:26:14.866Z,3437.00
2022-11-12T08:27:14.966Z,3391.00
2022-11-12T08:28:14.807Z,3726.00
2022-11-12T08:29:14.786Z,3723.00
2022-11-12T08:30:14.786Z,3709.00
2022-11-12T08:31:14.845Z,3782.00
2022-11-12T08:32:14.934Z,4052.00
2022-11-12T08:33:14.753Z,3912.00
2022-11-12T08:34:18.644Z,3978.00
2022-11-12T08:35:14.777Z,4297.00
2022-11-12T08:36:14.753Z,4255.00
2022-11-12T08:37:14.770Z,4828.00
2022-11-12T08:38:14.715Z,4806.00
2022-11-12T08:39:14.734Z,4510.00
2022-11-12T08:40:14.675Z,5498.00
2022-11-12T08:41:14.711Z,6048.00
2022-11-12T08:42:14.641Z,5272.00
2022-11-12T08:43:14.749Z,5806.00
2022-11-12T08:44:14.682Z,5259.00
2022-11-12T08:45:14.699Z,4968.00
2022-11-12T08:46:14.680Z,5032.00
2022-11-12T08:47:14.609Z,5059.00
2022-11-12T08:48:14.662Z,5071.00
2022-11-12T08:49:14.741Z,4582.00
2022-11-12T08:50:14.577Z,4924.00
2022-11-12T08:51:14.602Z,4941.00
2022-11-12T08:52:14.556Z,5605.00
2022-11-12T08:53:14.565Z,5311.00
2022-11-12T08:54:14.575Z,4796.00
2022-11-12T08:55:14.531Z,4400.00
2022-11-12T08:56:14.574Z,5177.00
2022-11-12T08:57:14.601Z,5362.00
2022-11-12T08:58:14.581Z,5020.00
2022-11-12T08:59:14.541Z,5461.00
2022-11-12T09:00:14.566Z,5330.00
2022-11-12T09:01:14.530Z,5591.00
2022-11-12T09:02:14.473Z,5302.00
2022-11-12T09:03:14.486Z,5627.00
2022-11-12T09:04:14.424Z,5898.00
2022-11-12T09:05:14.540Z,6119.00
2022-11-12T09:06:14.433Z,6313.00
2022-11-12T09:07:43.409Z,6040.00
2022-11-12T09:08:14.525Z,5791.00
2022-11-12T09:09:14.399Z,5087.00
2022-11-12T09:10:14.486Z,5085.00
2022-11-12T09:11:14.364Z,5202.00
2022-11-12T09:12:19.253Z,5146.00
2022-11-12T09:13:14.404Z,5458.00
2022-11-12T09:14:14.424Z,5649.00
2022-11-12T09:16:14.315Z,5165.00
2022-11-12T09:17:14.304Z,5296.00
2022-11-12T09:18:14.366Z,5265.00
2022-11-12T09:19:14.343Z,5302.00
2022-11-12T09:20:14.271Z,5108.00
2022-11-12T09:21:14.382Z,5663.00
2022-11-12T09:22:14.281Z,5647.00
2022-11-12T09:23:14.251Z,5827.00
2022-11-12T09:24:14.244Z,6068.00
2022-11-12T09:25:14.493Z,6271.00
2022-11-12T09:26:14.212Z,6717.00
2022-11-12T09:27:14.211Z,7016.00
2022-11-12T09:28:14.275Z,6459.00
2022-11-12T09:29:14.209Z,6818.00
2022-11-12T09:30:14.215Z,6612.00
2022-11-12T09:31:14.231Z,6928.00
2022-11-12T09:32:14.193Z,7369.00
2022-11-12T09:33:14.148Z,7647.00
2022-11-12T09:34:14.212Z,7087.00
2022-11-12T09:35:14.123Z,7245.00
2022-11-12T09:36:14.314Z,7289.00
2022-11-12T09:37:14.131Z,7474.00
2022-11-12T09:38:14.091Z,7042.00
2022-11-12T09:39:14.200Z,7471.00
2022-11-12T09:40:14.066Z,7205.00
2022-11-12T09:41:14.130Z,7880.00
2022-11-12T09:42:14.068Z,8910.00
2022-11-12T09:43:14.073Z,8914.00
2022-11-12T09:44:14.096Z,9131.00
2022-11-12T09:45:14.086Z,8311.00
2022-11-12T09:46:27.183Z,8135.00
2022-11-12T09:47:14.021Z,9395.00
2022-11-12T09:48:14.034Z,10421.00
2022-11-12T09:49:14.030Z,11352.00
2022-11-12T09:50:13.988Z,10264.00
2022-11-12T09:51:13.968Z,9021.00
2022-11-12T09:52:13.973Z,8605.00
2022-11-12T09:53:13.989Z,8349.00
2022-11-12T09:54:13.922Z,8456.00
2022-11-12T09:55:13.966Z,8310.00
2022-11-12T09:56:13.924Z,8234.00
2022-11-12T09:57:13.932Z,8803.00
2022-11-12T09:58:13.884Z,8904.00
2022-11-12T09:59:14.091Z,11024.00
2022-11-12T10:00:13.942Z,12240.00
2022-11-12T10:01:13.937Z,11618.00
2022-11-12T10:02:13.876Z,9313.00
2022-11-12T10:03:13.846Z,10251.00
2022-11-12T10:04:13.823Z,9404.00
2022-11-12T10:05:13.954Z,8778.00
2022-11-12T10:06:18.173Z,8274.00
2022-11-12T10:07:13.913Z,7903.00
2022-11-12T10:08:13.805Z,8250.00
2022-11-12T10:09:13.792Z,7938.00
2022-11-12T10:10:13.781Z,7165.00
2022-11-12T10:11:13.767Z,7453.00
2022-11-12T10:12:13.823Z,8028.00
2022-11-12T10:13:13.786Z,9193.00
2022-11-12T10:14:13.788Z,10819.00
2022-11-12T10:15:13.724Z,11354.00
2022-11-12T10:16:13.806Z,9606.00
2022-11-12T10:17:13.692Z,8109.00
2022-11-12T10:18:13.819Z,8464.00
2022-11-12T10:19:13.761Z,7894.00
2022-11-12T10:20:13.684Z,7931.00
2022-11-12T10:21:13.794Z,8394.00
2022-11-12T10:22:13.769Z,8060.00
2022-11-12T10:23:13.631Z,9384.00
2022-11-12T10:24:13.730Z,11050.00
2022-11-12T10:25:13.618Z,11057.00
2022-11-12T10:26:13.595Z,11623.00
2022-11-12T10:27:13.600Z,11297.00
2022-11-12T10:28:13.593Z,10641.00
2022-11-12T10:29:13.621Z,9365.00
2022-11-12T10:30:13.570Z,8731.00
2022-11-12T10:31:13.573Z,8484.00
2022-11-12T10:32:13.604Z,8341.00
2022-11-12T10:33:13.552Z,8595.00
2022-11-12T10:34:13.599Z,8360.00
2022-11-12T10:35:13.584Z,8602.00
2022-11-12T10:36:13.494Z,7902.00
2022-11-12T10:37:13.563Z,8532.00
2022-11-12T10:38:13.676Z,8537.00
2022-11-12T10:39:13.473Z,8532.00
2022-11-12T10:40:13.534Z,8582.00
2022-11-12T10:41:13.561Z,8106.00
2022-11-12T10:42:13.500Z,7499.00
2022-11-12T10:43:13.434Z,6999.00
2022-11-12T10:44:13.618Z,6586.00
2022-11-12T10:45:13.414Z,7179.00
2022-11-12T10:46:13.418Z,7053.00
2022-11-12T10:47:13.383Z,6173.00
2022-11-12T10:48:13.433Z,7101.00
2022-11-12T10:49:13.402Z,7446.00
2022-11-12T10:50:13.491Z,7840.00
2022-11-12T10:51:13.358Z,8554.00
2022-11-12T10:52:13.391Z,7788.00
2022-11-12T10:53:13.523Z,7747.00
2022-11-12T10:54:13.424Z,7290.00
2022-11-12T10:55:13.360Z,7250.00
2022-11-12T10:56:13.303Z,7695.00
2022-11-12T10:57:13.359Z,7502.00
2022-11-12T10:58:13.276Z,7939.00
2022-11-12T10:59:13.262Z,7215.00
2022-11-12T11:00:13.254Z,7974.00
2022-11-12T11:01:13.295Z,8044.00
2022-11-12T11:02:13.339Z,7594.00
2022-11-12T11:03:13.234Z,7726.00
2022-11-12T11:04:13.321Z,7506.00
2022-11-12T11:05:13.213Z,7633.00
2022-11-12T11:06:14.906Z,8164.00
2022-11-12T11:07:13.544Z,8344.00
2022-11-12T11:08:19.775Z,8620.00
2022-11-12T11:09:13.177Z,9819.00
2022-11-12T11:10:13.151Z,9945.00
2022-11-12T11:11:13.190Z,10122.00
2022-11-12T11:12:13.205Z,10212.00
2022-11-12T11:13:13.130Z,10009.00
2022-11-12T11:14:13.204Z,9024.00
2022-11-12T11:15:13.139Z,9205.00
2022-11-12T11:16:13.142Z,9422.00
2022-11-12T11:17:13.100Z,9235.00
2022-11-12T11:18:13.072Z,8032.00
2022-11-12T11:19:13.135Z,8412.00
2022-11-12T11:20:13.051Z,8558.00
2022-11-12T11:21:13.087Z,8280.00
2022-11-12T11:22:13.028Z,8192.00
2022-11-12T11:23:13.092Z,7413.00
2022-11-12T11:24:13.129Z,7354.00
2022-11-12T11:25:13.004Z,7061.00
2022-11-12T11:26:13.066Z,6852.00
2022-11-12T11:27:12.979Z,6548.00
2022-11-12T11:28:12.965Z,6352.00
2022-11-12T11:29:13.096Z,5381.00
2022-11-12T11:30:13.083Z,5942.00
2022-11-12T11:31:13.033Z,6542.00
2022-11-12T11:32:12.927Z,6930.00
2022-11-12T11:33:12.934Z,6031.00
2022-11-12T11:34:12.911Z,7310.00
2022-11-12T11:35:12.944Z,6670.00
2022-11-12T11:36:12.886Z,6010.00
2022-11-12T11:37:12.926Z,6224.00
2022-11-12T11:38:12.923Z,5863.00
2022-11-12T11:39:12.868Z,6745.00
2022-11-12T11:40:12.896Z,6268.00
2022-11-12T11:41:12.847Z,7107.00
2022-11-12T11:42:12.847Z,7407.00
2022-11-12T11:43:12.867Z,8983.00
2022-11-12T11:44:14.164Z,8092.00
2022-11-12T11:45:12.807Z,6875.00
2022-11-12T11:46:12.781Z,7153.00
2022-11-12T11:47:12.830Z,8116.00
2022-11-12T11:48:12.762Z,7552.00
2022-11-12T11:49:12.762Z,7225.00
2022-11-12T11:50:12.767Z,7252.00
2022-11-12T11:51:12.779Z,6784.00
2022-11-12T11:52:12.779Z,6944.00
2022-11-12T11:53:12.715Z,6912.00
2022-11-12T11:54:12.708Z,6741.00
2022-11-12T11:55:12.711Z,6361.00
2022-11-12T11:56:12.686Z,6766.00
2022-11-12T11:57:12.765Z,6062.00
2022-11-12T11:58:12.683Z,5966.00
2022-11-12T11:59:12.666Z,5524.00
2022-11-12T12:00:12.678Z,5629.00
2022-11-12T12:01:12.641Z,5496.00
2022-11-12T12:02:12.631Z,5614.00
2022-11-12T12:03:12.741Z,5600.00
2022-11-12T12:04:12.623Z,5674.00
2022-11-12T12:05:12.655Z,5634.00
2022-11-12T12:06:12.579Z,5725.00
2022-11-12T12:07:12.663Z,5583.00
2022-11-12T12:08:12.567Z,5271.00
2022-11-12T12:09:12.580Z,5236.00
2022-11-12T12:10:12.569Z,5198.00
2022-11-12T12:11:12.649Z,5012.00
2022-11-12T12:12:12.589Z,5074.00
2022-11-12T12:13:12.514Z,5014.00
2022-11-12T12:14:12.571Z,5103.00
2022-11-12T12:15:12.512Z,5083.00
2022-11-12T12:16:12.488Z,5105.00
2022-11-12T12:17:12.524Z,5107.00
2022-11-12T12:18:12.511Z,4910.00
2022-11-12T12:19:12.499Z,5003.00
2022-11-12T12:20:12.463Z,4865.00
2022-11-12T12:21:12.512Z,4904.00
2022-11-12T12:22:12.484Z,4993.00
2022-11-12T12:23:12.524Z,4907.00
2022-11-12T12:24:12.402Z,4940.00
2022-11-12T12:25:12.396Z,5080.00
2022-11-12T12:26:12.382Z,5114.00
2022-11-12T12:27:12.380Z,5045.00
2022-11-12T12:28:12.414Z,5027.00
2022-11-12T12:29:12.358Z,5146.00
2022-11-12T12:30:12.369Z,5154.00
2022-11-12T12:31:12.329Z,5165.00
2022-11-12T12:32:12.319Z,5364.00
2022-11-12T12:33:12.323Z,5165.00
2022-11-12T12:34:12.363Z,5211.00
2022-11-12T12:35:12.309Z,5139.00
2022-11-12T12:36:12.311Z,5204.00
2022-11-12T12:37:12.279Z,5386.00
2022-11-12T12:38:12.312Z,5232.00
2022-11-12T12:39:12.264Z,5293.00
2022-11-12T12:40:12.357Z,5288.00
2022-11-12T12:41:12.231Z,5261.00